sensor_id;sensor_type;location;lat;lon;timestamp;P1;durP1;ratioP1;P2;durP2;ratioP2
17189;SDS011;8710;49.880;8.272;2022-07-05T00:00:43;3.10;;;1.30;;
17189;SDS011;8710;49.880;8.272;2022-07-05T00:03:11;1.70;;;1.30;;
17189;SDS011;8710;49.880;8.272;2022-07-05T00:05:37;2.27;;;1.20;;
17189;SDS011;8710;49.880;8.272;2022-07-05T00:08:05;2.40;;;1.40;;
17189;SDS011;8710;49.880;8.272;2022-07-05T00:10:34;2.77;;;1.23;;
17189;SDS011;8710;49.880;8.272;2022-07-05T00:13:02;1.93;;;1.17;;
17189;SDS011;8710;49.880;8.272;2022-07-05T00:15:30;3.30;;;1.23;;
17189;SDS011;8710;49.880;8.272;2022-07-05T00:17:57;2.13;;;1.40;;
17189;SDS011;8710;49.880;8.272;2022-07-05T00:20:24;2.50;;;1.30;;
17189;SDS011;8710;49.880;8.272;2022-07-05T00:22:51;2.87;;;1.30;;
17189;SDS011;8710;49.880;8.272;2022-07-05T00:25:18;2.17;;;1.30;;
17189;SDS011;8710;49.880;8.272;2022-07-05T00:27:46;1.63;;;1.40;;
17189;SDS011;8710;49.880;8.272;2022-07-05T00:30:13;2.53;;;1.40;;
17189;SDS011;8710;49.880;8.272;2022-07-05T00:32:41;1.30;;;1.10;;
17189;SDS011;8710;49.880;8.272;2022-07-05T00:35:08;2.03;;;1.40;;
17189;SDS011;8710;49.880;8.272;2022-07-05T00:37:35;2.10;;;1.20;;
17189;SDS011;8710;49.880;8.272;2022-07-05T00:40:02;3.27;;;1.50;;
17189;SDS011;8710;49.880;8.272;2022-07-05T00:42:30;3.23;;;1.50;;
17189;SDS011;8710;49.880;8.272;2022-07-05T00:44:59;1.53;;;1.43;;
17189;SDS011;8710;49.880;8.272;2022-07-05T00:47:26;2.90;;;1.53;;
17189;SDS011;8710;49.880;8.272;2022-07-05T00:49:53;2.03;;;1.40;;
17189;SDS011;8710;49.880;8.272;2022-07-05T00:52:20;1.43;;;1.13;;
17189;SDS011;8710;49.880;8.272;2022-07-05T00:54:48;4.50;;;1.40;;
17189;SDS011;8710;49.880;8.272;2022-07-05T00:57:15;1.90;;;1.40;;
17189;SDS011;8710;49.880;8.272;2022-07-05T00:59:42;1.87;;;1.30;;
17189;SDS011;8710;49.880;8.272;2022-07-05T01:02:10;2.00;;;1.63;;
17189;SDS011;8710;49.880;8.272;2022-07-05T01:04:37;3.97;;;1.30;;
17189;SDS011;8710;49.880;8.272;2022-07-05T01:07:04;2.03;;;1.30;;
17189;SDS011;8710;49.880;8.272;2022-07-05T01:09:32;1.47;;;1.20;;
17189;SDS011;8710;49.880;8.272;2022-07-05T01:12:00;4.50;;;1.30;;
17189;SDS011;8710;49.880;8.272;2022-07-05T01:14:27;3.47;;;1.37;;
17189;SDS011;8710;49.880;8.272;2022-07-05T01:16:54;1.90;;;1.17;;
17189;SDS011;8710;49.880;8.272;2022-07-05T01:19:22;1.93;;;1.40;;
17189;SDS011;8710;49.880;8.272;2022-07-05T01:21:50;1.50;;;1.27;;
17189;SDS011;8710;49.880;8.272;2022-07-05T01:24:19;2.13;;;1.30;;
17189;SDS011;8710;49.880;8.272;2022-07-05T01:26:47;2.47;;;1.40;;
17189;SDS011;8710;49.880;8.272;2022-07-05T01:29:15;2.27;;;1.43;;
17189;SDS011;8710;49.880;8.272;2022-07-05T01:31:43;2.87;;;1.37;;
17189;SDS011;8710;49.880;8.272;2022-07-05T01:34:10;1.60;;;1.17;;
17189;SDS011;8710;49.880;8.272;2022-07-05T01:36:37;1.50;;;1.23;;
17189;SDS011;8710;49.880;8.272;2022-07-05T01:39:05;1.30;;;1.20;;
17189;SDS011;8710;49.880;8.272;2022-07-05T01:41:35;4.20;;;1.50;;
17189;SDS011;8710;49.880;8.272;2022-07-05T01:44:02;4.10;;;1.60;;
17189;SDS011;8710;49.880;8.272;2022-07-05T01:46:30;1.67;;;1.50;;
17189;SDS011;8710;49.880;8.272;2022-07-05T01:49:03;2.70;;;1.40;;
17189;SDS011;8710;49.880;8.272;2022-07-05T01:51:32;3.70;;;1.30;;
17189;SDS011;8710;49.880;8.272;2022-07-05T01:54:00;3.77;;;1.80;;
17189;SDS011;8710;49.880;8.272;2022-07-05T01:56:27;2.90;;;1.80;;
17189;SDS011;8710;49.880;8.272;2022-07-05T01:58:56;4.47;;;1.60;;
17189;SDS011;8710;49.880;8.272;2022-07-05T02:01:31;3.73;;;1.30;;
17189;SDS011;8710;49.880;8.272;2022-07-05T02:03:59;3.13;;;1.30;;
17189;SDS011;8710;49.880;8.272;2022-07-05T02:06:26;1.60;;;1.50;;
17189;SDS011;8710;49.880;8.272;2022-07-05T02:08:53;3.17;;;1.77;;
17189;SDS011;8710;49.880;8.272;2022-07-05T02:11:19;7.67;;;1.77;;
17189;SDS011;8710;49.880;8.272;2022-07-05T02:13:46;3.43;;;1.20;;
17189;SDS011;8710;49.880;8.272;2022-07-05T02:16:14;6.17;;;1.70;;
17189;SDS011;8710;49.880;8.272;2022-07-05T02:18:41;2.57;;;1.47;;
17189;SDS011;8710;49.880;8.272;2022-07-05T02:21:08;2.33;;;1.30;;
17189;SDS011;8710;49.880;8.272;2022-07-05T02:23:35;2.53;;;1.70;;
17189;SDS011;8710;49.880;8.272;2022-07-05T02:26:02;3.20;;;1.40;;
17189;SDS011;8710;49.880;8.272;2022-07-05T02:28:29;3.20;;;1.63;;
17189;SDS011;8710;49.880;8.272;2022-07-05T02:30:56;1.60;;;1.50;;
17189;SDS011;8710;49.880;8.272;2022-07-05T02:33:25;3.47;;;1.50;;
17189;SDS011;8710;49.880;8.272;2022-07-05T02:35:52;3.03;;;1.63;;
17189;SDS011;8710;49.880;8.272;2022-07-05T02:38:19;3.63;;;1.80;;
17189;SDS011;8710;49.880;8.272;2022-07-05T02:40:46;2.83;;;1.50;;
17189;SDS011;8710;49.880;8.272;2022-07-05T02:43:13;2.03;;;1.70;;
17189;SDS011;8710;49.880;8.272;2022-07-05T02:45:40;4.10;;;1.70;;
17189;SDS011;8710;49.880;8.272;2022-07-05T02:48:07;4.33;;;1.73;;
17189;SDS011;8710;49.880;8.272;2022-07-05T02:50:36;1.60;;;1.43;;
17189;SDS011;8710;49.880;8.272;2022-07-05T02:53:02;3.30;;;1.43;;
17189;SDS011;8710;49.880;8.272;2022-07-05T02:55:30;2.93;;;1.73;;
17189;SDS011;8710;49.880;8.272;2022-07-05T02:57:57;3.43;;;1.80;;
17189;SDS011;8710;49.880;8.272;2022-07-05T03:00:24;3.53;;;1.70;;
17189;SDS011;8710;49.880;8.272;2022-07-05T03:02:51;2.60;;;1.70;;
17189;SDS011;8710;49.880;8.272;2022-07-05T03:05:18;1.80;;;1.60;;
17189;SDS011;8710;49.880;8.272;2022-07-05T03:07:47;3.87;;;1.67;;
17189;SDS011;8710;49.880;8.272;2022-07-05T03:10:14;3.00;;;1.60;;
17189;SDS011;8710;49.880;8.272;2022-07-05T03:12:41;2.63;;;1.60;;
17189;SDS011;8710;49.880;8.272;2022-07-05T03:15:08;4.83;;;2.10;;
17189;SDS011;8710;49.880;8.272;2022-07-05T03:17:36;3.20;;;1.93;;
17189;SDS011;8710;49.880;8.272;2022-07-05T03:20:03;2.07;;;1.63;;
17189;SDS011;8710;49.880;8.272;2022-07-05T03:22:31;3.17;;;1.70;;
17189;SDS011;8710;49.880;8.272;2022-07-05T03:24:59;1.63;;;1.50;;
17189;SDS011;8710;49.880;8.272;2022-07-05T03:27:26;3.07;;;1.40;;
17189;SDS011;8710;49.880;8.272;2022-07-05T03:29:53;1.90;;;1.80;;
17189;SDS011;8710;49.880;8.272;2022-07-05T03:32:20;3.87;;;1.70;;
17189;SDS011;8710;49.880;8.272;2022-07-05T03:34:47;2.23;;;1.67;;
17189;SDS011;8710;49.880;8.272;2022-07-05T03:37:14;3.30;;;1.80;;
17189;SDS011;8710;49.880;8.272;2022-07-05T03:39:41;2.83;;;1.60;;
17189;SDS011;8710;49.880;8.272;2022-07-05T03:42:09;5.23;;;1.80;;
17189;SDS011;8710;49.880;8.272;2022-07-05T03:44:36;4.00;;;1.67;;
17189;SDS011;8710;49.880;8.272;2022-07-05T03:47:04;3.10;;;1.50;;
17189;SDS011;8710;49.880;8.272;2022-07-05T03:49:31;2.67;;;1.67;;
17189;SDS011;8710;49.880;8.272;2022-07-05T03:51:58;4.20;;;1.53;;
17189;SDS011;8710;49.880;8.272;2022-07-05T03:54:25;3.97;;;1.50;;
17189;SDS011;8710;49.880;8.272;2022-07-05T03:56:52;3.73;;;1.70;;
17189;SDS011;8710;49.880;8.272;2022-07-05T03:59:21;3.27;;;1.57;;
17189;SDS011;8710;49.880;8.272;2022-07-05T04:01:48;3.00;;;1.50;;
17189;SDS011;8710;49.880;8.272;2022-07-05T04:04:15;1.90;;;1.70;;
17189;SDS011;8710;49.880;8.272;2022-07-05T04:06:42;2.57;;;1.70;;
17189;SDS011;8710;49.880;8.272;2022-07-05T04:09:10;1.70;;;1.60;;
17189;SDS011;8710;49.880;8.272;2022-07-05T04:11:37;2.97;;;1.67;;
17189;SDS011;8710;49.880;8.272;2022-07-05T04:14:04;2.77;;;1.70;;
17189;SDS011;8710;49.880;8.272;2022-07-05T04:16:32;8.10;;;2.30;;
17189;SDS011;8710;49.880;8.272;2022-07-05T04:18:59;1.87;;;1.73;;
17189;SDS011;8710;49.880;8.272;2022-07-05T04:21:26;3.93;;;1.87;;
17189;SDS011;8710;49.880;8.272;2022-07-05T04:23:53;2.03;;;1.80;;
17189;SDS011;8710;49.880;8.272;2022-07-05T04:26:20;2.20;;;2.00;;
17189;SDS011;8710;49.880;8.272;2022-07-05T04:28:47;2.30;;;2.00;;
17189;SDS011;8710;49.880;8.272;2022-07-05T04:31:14;5.83;;;2.07;;
17189;SDS011;8710;49.880;8.272;2022-07-05T04:33:42;2.20;;;1.57;;
17189;SDS011;8710;49.880;8.272;2022-07-05T04:36:09;2.10;;;1.60;;
17189;SDS011;8710;49.880;8.272;2022-07-05T04:38:36;3.23;;;2.03;;
17189;SDS011;8710;49.880;8.272;2022-07-05T04:41:03;2.67;;;1.70;;
17189;SDS011;8710;49.880;8.272;2022-07-05T04:43:30;3.47;;;1.90;;
17189;SDS011;8710;49.880;8.272;2022-07-05T04:45:59;4.40;;;1.80;;
17189;SDS011;8710;49.880;8.272;2022-07-05T04:48:26;2.47;;;1.80;;
17189;SDS011;8710;49.880;8.272;2022-07-05T04:50:54;4.10;;;2.20;;
17189;SDS011;8710;49.880;8.272;2022-07-05T04:53:21;2.57;;;1.90;;
17189;SDS011;8710;49.880;8.272;2022-07-05T04:55:48;4.30;;;1.87;;
17189;SDS011;8710;49.880;8.272;2022-07-05T04:58:15;3.03;;;1.80;;
17189;SDS011;8710;49.880;8.272;2022-07-05T05:00:42;2.17;;;1.60;;
17189;SDS011;8710;49.880;8.272;2022-07-05T05:03:09;4.17;;;1.93;;
17189;SDS011;8710;49.880;8.272;2022-07-05T05:05:36;2.30;;;1.70;;
17189;SDS011;8710;49.880;8.272;2022-07-05T05:08:05;2.47;;;1.70;;
17189;SDS011;8710;49.880;8.272;2022-07-05T05:10:32;3.33;;;1.60;;
17189;SDS011;8710;49.880;8.272;2022-07-05T05:12:59;7.10;;;1.73;;
17189;SDS011;8710;49.880;8.272;2022-07-05T05:15:26;4.53;;;1.70;;
17189;SDS011;8710;49.880;8.272;2022-07-05T05:17:53;4.97;;;1.70;;
17189;SDS011;8710;49.880;8.272;2022-07-05T05:20:20;3.90;;;1.53;;
17189;SDS011;8710;49.880;8.272;2022-07-05T05:22:47;1.53;;;1.43;;
17189;SDS011;8710;49.880;8.272;2022-07-05T05:25:16;2.97;;;1.50;;
17189;SDS011;8710;49.880;8.272;2022-07-05T05:27:43;1.50;;;1.27;;
17189;SDS011;8710;49.880;8.272;2022-07-05T05:30:11;3.70;;;1.30;;
17189;SDS011;8710;49.880;8.272;2022-07-05T05:32:39;4.20;;;1.70;;
17189;SDS011;8710;49.880;8.272;2022-07-05T05:35:06;3.87;;;1.70;;
17189;SDS011;8710;49.880;8.272;2022-07-05T05:37:44;3.03;;;1.47;;
17189;SDS011;8710;49.880;8.272;2022-07-05T05:40:12;2.47;;;1.40;;
17189;SDS011;8710;49.880;8.272;2022-07-05T05:42:41;3.00;;;1.37;;
17189;SDS011;8710;49.880;8.272;2022-07-05T05:45:08;3.70;;;1.30;;
17189;SDS011;8710;49.880;8.272;2022-07-05T05:47:42;2.30;;;1.50;;
17189;SDS011;8710;49.880;8.272;2022-07-05T05:50:12;1.87;;;1.50;;
17189;SDS011;8710;49.880;8.272;2022-07-05T05:52:40;5.27;;;1.73;;
17189;SDS011;8710;49.880;8.272;2022-07-05T05:55:07;2.83;;;1.40;;
17189;SDS011;8710;49.880;8.272;2022-07-05T05:57:34;2.13;;;1.37;;
17189;SDS011;8710;49.880;8.272;2022-07-05T06:00:04;4.77;;;1.73;;
17189;SDS011;8710;49.880;8.272;2022-07-05T06:02:32;6.87;;;1.80;;
17189;SDS011;8710;49.880;8.272;2022-07-05T06:04:59;6.40;;;1.93;;
17189;SDS011;8710;49.880;8.272;2022-07-05T06:07:26;3.33;;;1.20;;
17189;SDS011;8710;49.880;8.272;2022-07-05T06:09:53;3.93;;;1.60;;
17189;SDS011;8710;49.880;8.272;2022-07-05T06:12:20;1.67;;;1.00;;
17189;SDS011;8710;49.880;8.272;2022-07-05T06:14:47;2.67;;;1.20;;
17189;SDS011;8710;49.880;8.272;2022-07-05T06:17:16;2.78;;;1.10;;
17189;SDS011;8710;49.880;8.272;2022-07-05T06:19:42;3.67;;;1.38;;
17189;SDS011;8710;49.880;8.272;2022-07-05T06:22:09;2.30;;;1.38;;
17189;SDS011;8710;49.880;8.272;2022-07-05T06:24:36;2.33;;;1.20;;
17189;SDS011;8710;49.880;8.272;2022-07-05T06:27:04;4.30;;;1.20;;
17189;SDS011;8710;49.880;8.272;2022-07-05T06:29:31;2.88;;;1.30;;
17189;SDS011;8710;49.880;8.272;2022-07-05T06:31:57;1.67;;;1.23;;
17189;SDS011;8710;49.880;8.272;2022-07-05T06:34:26;1.13;;;1.02;;
17189;SDS011;8710;49.880;8.272;2022-07-05T06:36:53;2.03;;;1.30;;
17189;SDS011;8710;49.880;8.272;2022-07-05T06:39:20;2.83;;;1.25;;
17189;SDS011;8710;49.880;8.272;2022-07-05T06:41:47;2.17;;;1.20;;
17189;SDS011;8710;49.880;8.272;2022-07-05T06:44:14;2.45;;;1.10;;
17189;SDS011;8710;49.880;8.272;2022-07-05T06:46:40;4.22;;;1.33;;
17189;SDS011;8710;49.880;8.272;2022-07-05T06:49:07;2.30;;;1.20;;
17189;SDS011;8710;49.880;8.272;2022-07-05T06:51:36;2.72;;;1.23;;
17189;SDS011;8710;49.880;8.272;2022-07-05T06:54:03;2.88;;;1.30;;
17189;SDS011;8710;49.880;8.272;2022-07-05T06:56:29;7.07;;;1.48;;
17189;SDS011;8710;49.880;8.272;2022-07-05T06:58:57;3.95;;;1.30;;
17189;SDS011;8710;49.880;8.272;2022-07-05T07:01:23;2.35;;;1.30;;
17189;SDS011;8710;49.880;8.272;2022-07-05T07:03:51;4.45;;;1.42;;
17189;SDS011;8710;49.880;8.272;2022-07-05T07:06:18;2.53;;;1.40;;
17189;SDS011;8710;49.880;8.272;2022-07-05T07:08:46;3.42;;;1.30;;
17189;SDS011;8710;49.880;8.272;2022-07-05T07:11:30;2.22;;;1.10;;
17189;SDS011;8710;49.880;8.272;2022-07-05T07:13:57;2.20;;;1.23;;
17189;SDS011;8710;49.880;8.272;2022-07-05T07:16:24;3.60;;;1.08;;
17189;SDS011;8710;49.880;8.272;2022-07-05T07:18:51;3.35;;;1.08;;
17189;SDS011;8710;49.880;8.272;2022-07-05T07:21:19;2.88;;;1.35;;
17189;SDS011;8710;49.880;8.272;2022-07-05T07:23:47;1.90;;;1.40;;
17189;SDS011;8710;49.880;8.272;2022-07-05T07:26:14;4.75;;;2.00;;
17189;SDS011;8710;49.880;8.272;2022-07-05T07:28:41;4.00;;;1.30;;
17189;SDS011;8710;49.880;8.272;2022-07-05T07:31:08;2.25;;;1.20;;
17189;SDS011;8710;49.880;8.272;2022-07-05T07:33:35;3.15;;;1.42;;
17189;SDS011;8710;49.880;8.272;2022-07-05T07:36:02;3.55;;;1.20;;
17189;SDS011;8710;49.880;8.272;2022-07-05T07:38:30;3.20;;;1.25;;
17189;SDS011;8710;49.880;8.272;2022-07-05T07:40:58;4.13;;;1.30;;
17189;SDS011;8710;49.880;8.272;2022-07-05T07:43:26;1.30;;;1.10;;
17189;SDS011;8710;49.880;8.272;2022-07-05T07:45:53;3.15;;;1.20;;
17189;SDS011;8710;49.880;8.272;2022-07-05T07:48:20;3.80;;;1.30;;
17189;SDS011;8710;49.880;8.272;2022-07-05T07:50:47;3.70;;;1.38;;
17189;SDS011;8710;49.880;8.272;2022-07-05T07:53:14;2.08;;;1.20;;
17189;SDS011;8710;49.880;8.272;2022-07-05T07:55:41;1.70;;;1.20;;
17189;SDS011;8710;49.880;8.272;2022-07-05T07:58:09;2.65;;;1.30;;
17189;SDS011;8710;49.880;8.272;2022-07-05T08:00:36;1.85;;;1.17;;
17189;SDS011;8710;49.880;8.272;2022-07-05T08:03:03;1.30;;;1.20;;
17189;SDS011;8710;49.880;8.272;2022-07-05T08:05:30;2.55;;;1.40;;
17189;SDS011;8710;49.880;8.272;2022-07-05T08:07:57;2.80;;;1.27;;
17189;SDS011;8710;49.880;8.272;2022-07-05T08:10:24;2.35;;;1.33;;
17189;SDS011;8710;49.880;8.272;2022-07-05T08:12:50;1.40;;;1.10;;
17189;SDS011;8710;49.880;8.272;2022-07-05T08:15:19;1.38;;;1.10;;
17189;SDS011;8710;49.880;8.272;2022-07-05T08:17:46;2.30;;;1.30;;
17189;SDS011;8710;49.880;8.272;2022-07-05T08:20:27;2.30;;;1.20;;
17189;SDS011;8710;49.880;8.272;2022-07-05T08:23:12;1.92;;;1.05;;
17189;SDS011;8710;49.880;8.272;2022-07-05T08:25:39;2.85;;;1.25;;
17189;SDS011;8710;49.880;8.272;2022-07-05T08:28:05;2.60;;;1.40;;
17189;SDS011;8710;49.880;8.272;2022-07-05T08:30:34;2.75;;;1.33;;
17189;SDS011;8710;49.880;8.272;2022-07-05T08:33:01;2.90;;;1.50;;
17189;SDS011;8710;49.880;8.272;2022-07-05T08:35:27;2.10;;;1.40;;
17189;SDS011;8710;49.880;8.272;2022-07-05T08:37:55;2.55;;;1.25;;
17189;SDS011;8710;49.880;8.272;2022-07-05T08:40:22;2.08;;;1.30;;
17189;SDS011;8710;49.880;8.272;2022-07-05T08:42:52;2.17;;;1.20;;
17189;SDS011;8710;49.880;8.272;2022-07-05T08:45:21;2.40;;;1.20;;
17189;SDS011;8710;49.880;8.272;2022-07-05T08:47:53;5.20;;;1.30;;
17189;SDS011;8710;49.880;8.272;2022-07-05T08:50:25;2.63;;;1.40;;
17189;SDS011;8710;49.880;8.272;2022-07-05T08:52:53;2.22;;;1.27;;
17189;SDS011;8710;49.880;8.272;2022-07-05T08:55:20;3.63;;;1.35;;
17189;SDS011;8710;49.880;8.272;2022-07-05T08:57:47;2.17;;;1.27;;
17189;SDS011;8710;49.880;8.272;2022-07-05T09:00:15;1.67;;;1.23;;
17189;SDS011;8710;49.880;8.272;2022-07-05T09:02:42;1.77;;;1.10;;
17189;SDS011;8710;49.880;8.272;2022-07-05T09:05:12;3.65;;;1.25;;
17189;SDS011;8710;49.880;8.272;2022-07-05T09:07:40;2.42;;;1.10;;
17189;SDS011;8710;49.880;8.272;2022-07-05T09:10:19;3.88;;;1.08;;
17189;SDS011;8710;49.880;8.272;2022-07-05T09:12:47;0.80;;;0.80;;
17189;SDS011;8710;49.880;8.272;2022-07-05T09:15:14;14.65;;;2.00;;
17189;SDS011;8710;49.880;8.272;2022-07-05T09:17:42;3.30;;;1.27;;
17189;SDS011;8710;49.880;8.272;2022-07-05T09:20:10;3.42;;;1.40;;
17189;SDS011;8710;49.880;8.272;2022-07-05T09:22:41;4.00;;;1.23;;
17189;SDS011;8710;49.880;8.272;2022-07-05T09:25:15;3.97;;;1.13;;
17189;SDS011;8710;49.880;8.272;2022-07-05T09:27:47;1.20;;;0.98;;
17189;SDS011;8710;49.880;8.272;2022-07-05T09:30:22;1.17;;;0.98;;
17189;SDS011;8710;49.880;8.272;2022-07-05T09:32:59;7.18;;;1.48;;
17189;SDS011;8710;49.880;8.272;2022-07-05T09:35:28;1.35;;;1.05;;
17189;SDS011;8710;49.880;8.272;2022-07-05T09:37:55;3.05;;;1.10;;
17189;SDS011;8710;49.880;8.272;2022-07-05T09:40:22;2.95;;;1.27;;
17189;SDS011;8710;49.880;8.272;2022-07-05T09:42:49;4.68;;;1.63;;
17189;SDS011;8710;49.880;8.272;2022-07-05T09:45:21;1.25;;;1.10;;
17189;SDS011;8710;49.880;8.272;2022-07-05T09:47:49;2.28;;;1.10;;
17189;SDS011;8710;49.880;8.272;2022-07-05T09:53:02;2.72;;;1.10;;
17189;SDS011;8710;49.880;8.272;2022-07-05T09:55:30;1.27;;;1.17;;
17189;SDS011;8710;49.880;8.272;2022-07-05T09:57:58;1.92;;;1.20;;
17189;SDS011;8710;49.880;8.272;2022-07-05T10:00:25;3.38;;;1.40;;
17189;SDS011;8710;49.880;8.272;2022-07-05T10:02:54;1.25;;;1.10;;
17189;SDS011;8710;49.880;8.272;2022-07-05T10:05:26;2.05;;;1.40;;
17189;SDS011;8710;49.880;8.272;2022-07-05T10:07:55;2.67;;;1.40;;
17189;SDS011;8710;49.880;8.272;2022-07-05T10:10:23;1.58;;;1.40;;
17189;SDS011;8710;49.880;8.272;2022-07-05T10:12:50;2.85;;;1.30;;
17189;SDS011;8710;49.880;8.272;2022-07-05T10:15:18;3.08;;;1.42;;
17189;SDS011;8710;49.880;8.272;2022-07-05T10:17:47;1.45;;;1.30;;
17189;SDS011;8710;49.880;8.272;2022-07-05T10:20:18;3.20;;;1.65;;
17189;SDS011;8710;49.880;8.272;2022-07-05T10:22:49;3.13;;;1.30;;
17189;SDS011;8710;49.880;8.272;2022-07-05T10:25:20;1.58;;;1.20;;
17189;SDS011;8710;49.880;8.272;2022-07-05T10:27:48;1.58;;;1.40;;
17189;SDS011;8710;49.880;8.272;2022-07-05T10:30:19;2.90;;;1.40;;
17189;SDS011;8710;49.880;8.272;2022-07-05T10:32:46;1.70;;;1.17;;
17189;SDS011;8710;49.880;8.272;2022-07-05T10:35:14;3.05;;;1.25;;
17189;SDS011;8710;49.880;8.272;2022-07-05T10:37:42;3.90;;;1.20;;
17189;SDS011;8710;49.880;8.272;2022-07-05T10:40:10;3.22;;;1.20;;
17189;SDS011;8710;49.880;8.272;2022-07-05T10:42:39;5.22;;;1.50;;
17189;SDS011;8710;49.880;8.272;2022-07-05T10:48:14;2.63;;;1.63;;
17189;SDS011;8710;49.880;8.272;2022-07-05T10:50:45;2.80;;;1.30;;
17189;SDS011;8710;49.880;8.272;2022-07-05T10:53:13;2.55;;;1.20;;
17189;SDS011;8710;49.880;8.272;2022-07-05T10:55:51;3.22;;;1.27;;
17189;SDS011;8710;49.880;8.272;2022-07-05T10:58:24;2.08;;;1.20;;
17189;SDS011;8710;49.880;8.272;2022-07-05T11:04:15;2.17;;;1.20;;
17189;SDS011;8710;49.880;8.272;2022-07-05T11:06:44;1.48;;;1.20;;
17189;SDS011;8710;49.880;8.272;2022-07-05T11:09:15;2.15;;;1.10;;
17189;SDS011;8710;49.880;8.272;2022-07-05T11:11:43;1.73;;;1.33;;
17189;SDS011;8710;49.880;8.272;2022-07-05T11:19:51;3.50;;;1.50;;
17189;SDS011;8710;49.880;8.272;2022-07-05T11:23:04;3.22;;;1.40;;
17189;SDS011;8710;49.880;8.272;2022-07-05T11:25:36;6.50;;;1.38;;
17189;SDS011;8710;49.880;8.272;2022-07-05T11:28:07;1.88;;;1.05;;
17189;SDS011;8710;49.880;8.272;2022-07-05T11:30:51;1.20;;;1.10;;
17189;SDS011;8710;49.880;8.272;2022-07-05T11:33:25;1.20;;;1.10;;
17189;SDS011;8710;49.880;8.272;2022-07-05T11:35:58;1.58;;;1.40;;
17189;SDS011;8710;49.880;8.272;2022-07-05T11:38:25;2.25;;;1.67;;
17189;SDS011;8710;49.880;8.272;2022-07-05T11:41:11;1.25;;;1.08;;
17189;SDS011;8710;49.880;8.272;2022-07-05T11:43:40;1.98;;;0.90;;
17189;SDS011;8710;49.880;8.272;2022-07-05T11:46:08;1.98;;;1.20;;
17189;SDS011;8710;49.880;8.272;2022-07-05T11:48:35;2.65;;;1.15;;
17189;SDS011;8710;49.880;8.272;2022-07-05T11:51:14;4.20;;;1.10;;
17189;SDS011;8710;49.880;8.272;2022-07-05T11:53:41;2.28;;;1.08;;
17189;SDS011;8710;49.880;8.272;2022-07-05T11:56:09;1.42;;;1.27;;
17189;SDS011;8710;49.880;8.272;2022-07-05T11:58:36;2.13;;;1.27;;
17189;SDS011;8710;49.880;8.272;2022-07-05T12:01:03;2.15;;;1.17;;
17189;SDS011;8710;49.880;8.272;2022-07-05T12:03:32;2.67;;;1.50;;
17189;SDS011;8710;49.880;8.272;2022-07-05T12:06:09;1.55;;;1.10;;
17189;SDS011;8710;49.880;8.272;2022-07-05T12:08:38;1.50;;;1.10;;
17189;SDS011;8710;49.880;8.272;2022-07-05T12:11:05;1.63;;;1.00;;
17189;SDS011;8710;49.880;8.272;2022-07-05T12:13:50;2.35;;;1.10;;
17189;SDS011;8710;49.880;8.272;2022-07-05T12:16:17;1.23;;;1.10;;
17189;SDS011;8710;49.880;8.272;2022-07-05T12:18:51;1.23;;;0.90;;
17189;SDS011;8710;49.880;8.272;2022-07-05T12:21:20;1.20;;;1.10;;
17189;SDS011;8710;49.880;8.272;2022-07-05T12:23:49;2.17;;;1.13;;
17189;SDS011;8710;49.880;8.272;2022-07-05T12:26:18;1.70;;;1.00;;
17189;SDS011;8710;49.880;8.272;2022-07-05T12:28:46;1.35;;;1.20;;
17189;SDS011;8710;49.880;8.272;2022-07-05T12:31:17;3.85;;;1.27;;
17189;SDS011;8710;49.880;8.272;2022-07-05T12:33:45;1.13;;;1.00;;
17189;SDS011;8710;49.880;8.272;2022-07-05T12:36:12;1.35;;;1.25;;
17189;SDS011;8710;49.880;8.272;2022-07-05T12:38:39;3.25;;;1.27;;
17189;SDS011;8710;49.880;8.272;2022-07-05T12:41:08;2.10;;;1.00;;
17189;SDS011;8710;49.880;8.272;2022-07-05T12:43:48;1.95;;;1.25;;
17189;SDS011;8710;49.880;8.272;2022-07-05T12:46:16;2.90;;;1.17;;
17189;SDS011;8710;49.880;8.272;2022-07-05T12:48:43;1.00;;;1.00;;
17189;SDS011;8710;49.880;8.272;2022-07-05T12:51:10;1.38;;;1.10;;
17189;SDS011;8710;49.880;8.272;2022-07-05T12:53:44;4.10;;;1.10;;
17189;SDS011;8710;49.880;8.272;2022-07-05T12:56:31;7.05;;;1.50;;
17189;SDS011;8710;49.880;8.272;2022-07-05T12:59:15;1.13;;;1.02;;
17189;SDS011;8710;49.880;8.272;2022-07-05T13:01:43;1.13;;;1.00;;
17189;SDS011;8710;49.880;8.272;2022-07-05T13:04:11;0.80;;;0.80;;
17189;SDS011;8710;49.880;8.272;2022-07-05T13:06:39;1.20;;;1.02;;
17189;SDS011;8710;49.880;8.272;2022-07-05T13:09:06;2.65;;;0.80;;
17189;SDS011;8710;49.880;8.272;2022-07-05T13:11:35;0.82;;;0.82;;
17189;SDS011;8710;49.880;8.272;2022-07-05T13:14:02;1.38;;;1.00;;
17189;SDS011;8710;49.880;8.272;2022-07-05T13:16:29;1.60;;;1.30;;
17189;SDS011;8710;49.880;8.272;2022-07-05T13:19:05;3.10;;;1.27;;
17189;SDS011;8710;49.880;8.272;2022-07-05T13:21:36;1.63;;;1.10;;
17189;SDS011;8710;49.880;8.272;2022-07-05T13:24:04;1.17;;;0.85;;
17189;SDS011;8710;49.880;8.272;2022-07-05T13:26:31;1.33;;;1.00;;
17189;SDS011;8710;49.880;8.272;2022-07-05T13:29:00;2.75;;;1.13;;
17189;SDS011;8710;49.880;8.272;2022-07-05T13:31:26;1.95;;;1.02;;
17189;SDS011;8710;49.880;8.272;2022-07-05T13:33:57;1.55;;;0.75;;
17189;SDS011;8710;49.880;8.272;2022-07-05T13:36:25;2.20;;;0.98;;
17189;SDS011;8710;49.880;8.272;2022-07-05T13:38:52;3.22;;;0.80;;
17189;SDS011;8710;49.880;8.272;2022-07-05T13:41:19;1.67;;;0.90;;
17189;SDS011;8710;49.880;8.272;2022-07-05T13:43:46;0.88;;;0.88;;
17189;SDS011;8710;49.880;8.272;2022-07-05T13:46:15;2.08;;;0.90;;
17189;SDS011;8710;49.880;8.272;2022-07-05T13:48:42;1.20;;;0.90;;
17189;SDS011;8710;49.880;8.272;2022-07-05T13:51:09;1.40;;;0.85;;
17189;SDS011;8710;49.880;8.272;2022-07-05T13:53:36;1.08;;;0.90;;
17189;SDS011;8710;49.880;8.272;2022-07-05T13:56:03;1.10;;;1.00;;
17189;SDS011;8710;49.880;8.272;2022-07-05T13:58:31;2.55;;;1.02;;
17189;SDS011;8710;49.880;8.272;2022-07-05T14:00:58;1.90;;;1.10;;
17189;SDS011;8710;49.880;8.272;2022-07-05T14:03:26;1.17;;;1.08;;
17189;SDS011;8710;49.880;8.272;2022-07-05T14:05:53;3.35;;;1.10;;
17189;SDS011;8710;49.880;8.272;2022-07-05T14:08:20;1.90;;;0.90;;
17189;SDS011;8710;49.880;8.272;2022-07-05T14:10:48;1.38;;;1.20;;
17189;SDS011;8710;49.880;8.272;2022-07-05T14:13:16;3.65;;;1.30;;
17189;SDS011;8710;49.880;8.272;2022-07-05T14:15:44;1.13;;;1.02;;
17189;SDS011;8710;49.880;8.272;2022-07-05T14:18:13;1.10;;;1.00;;
17189;SDS011;8710;49.880;8.272;2022-07-05T14:20:42;1.17;;;1.05;;
17189;SDS011;8710;49.880;8.272;2022-07-05T14:23:10;2.53;;;1.30;;
17189;SDS011;8710;49.880;8.272;2022-07-05T14:25:37;1.58;;;1.20;;
17189;SDS011;8710;49.880;8.272;2022-07-05T14:28:04;1.27;;;1.17;;
17189;SDS011;8710;49.880;8.272;2022-07-05T14:30:34;2.90;;;1.30;;
17189;SDS011;8710;49.880;8.272;2022-07-05T14:33:01;1.98;;;1.30;;
17189;SDS011;8710;49.880;8.272;2022-07-05T14:35:28;1.95;;;1.30;;
17189;SDS011;8710;49.880;8.272;2022-07-05T14:37:57;1.23;;;1.10;;
17189;SDS011;8710;49.880;8.272;2022-07-05T14:40:25;2.80;;;1.40;;
17189;SDS011;8710;49.880;8.272;2022-07-05T14:42:52;2.30;;;0.95;;
17189;SDS011;8710;49.880;8.272;2022-07-05T14:45:20;1.50;;;1.08;;
17189;SDS011;8710;49.880;8.272;2022-07-05T14:47:47;2.92;;;1.30;;
17189;SDS011;8710;49.880;8.272;2022-07-05T14:50:14;1.58;;;1.10;;
17189;SDS011;8710;49.880;8.272;2022-07-05T14:52:41;2.28;;;1.08;;
17189;SDS011;8710;49.880;8.272;2022-07-05T14:55:10;1.70;;;1.10;;
17189;SDS011;8710;49.880;8.272;2022-07-05T14:57:37;1.52;;;1.20;;
17189;SDS011;8710;49.880;8.272;2022-07-05T15:00:06;2.17;;;1.10;;
17189;SDS011;8710;49.880;8.272;2022-07-05T15:02:33;1.38;;;1.20;;
17189;SDS011;8710;49.880;8.272;2022-07-05T15:05:00;1.20;;;1.10;;
17189;SDS011;8710;49.880;8.272;2022-07-05T15:07:28;2.67;;;1.25;;
17189;SDS011;8710;49.880;8.272;2022-07-05T15:09:54;3.78;;;1.20;;
17189;SDS011;8710;49.880;8.272;2022-07-05T15:12:23;1.27;;;1.00;;
17189;SDS011;8710;49.880;8.272;2022-07-05T15:14:50;4.35;;;1.10;;
17189;SDS011;8710;49.880;8.272;2022-07-05T15:17:17;4.18;;;1.35;;
17189;SDS011;8710;49.880;8.272;2022-07-05T15:19:44;2.35;;;1.20;;
17189;SDS011;8710;49.880;8.272;2022-07-05T15:22:11;1.52;;;1.30;;